sensor_id;sensor_type;location;lat;lon;timestamp;pressure;altitude;pressure_sealevel;temperature;humidity
70815;BME280;58428;49.478;10.986;2022-12-05T00:03:57;98111.56;;;7.02;100.00
70815;BME280;58428;49.478;10.986;2022-12-05T00:06:27;98113.84;;;7.17;100.00
70815;BME280;58428;49.478;10.986;2022-12-05T00:08:52;98109.28;;;7.26;100.00
70815;BME280;58428;49.478;10.986;2022-12-05T00:11:21;98122.25;;;7.24;100.00
70815;BME280;58428;49.478;10.986;2022-12-05T00:13:49;98114.22;;;7.32;100.00
70815;BME280;58428;49.478;10.986;2022-12-05T00:16:18;98117.97;;;7.23;100.00
70815;BME280;58428;49.478;10.986;2022-12-05T00:18:45;98122.69;;;7.18;100.00
70815;BME280;58428;49.478;10.986;2022-12-05T00:21:13;98124.78;;;7.21;100.00
70815;BME280;58428;49.478;10.986;2022-12-05T00:23:40;98125.25;;;7.23;100.00
70815;BME280;58428;49.478;10.986;2022-12-05T00:26:06;98130.16;;;7.21;100.00
70815;BME280;58428;49.478;10.986;2022-12-05T00:28:32;98132.81;;;7.12;100.00
70815;BME280;58428;49.478;10.986;2022-12-05T00:31:10;98133.72;;;7.08;100.00
70815;BME280;58428;49.478;10.986;2022-12-05T00:33:37;98137.66;;;7.02;100.00
70815;BME280;58428;49.478;10.986;2022-12-05T00:36:08;98136.09;;;7.01;100.00
70815;BME280;58428;49.478;10.986;2022-12-05T00:38:34;98129.59;;;7.02;100.00
70815;BME280;58428;49.478;10.986;2022-12-05T00:41:14;98133.91;;;7.11;100.00
70815;BME280;58428;49.478;10.986;2022-12-05T00:43:40;98138.53;;;7.19;100.00
70815;BME280;58428;49.478;10.986;2022-12-05T00:46:08;98142.34;;;7.18;100.00
70815;BME280;58428;49.478;10.986;2022-12-05T00:48:34;98142.66;;;7.17;100.00
70815;BME280;58428;49.478;10.986;2022-12-05T00:51:06;98139.16;;;7.16;100.00
70815;BME280;58428;49.478;10.986;2022-12-05T00:53:33;98152.94;;;7.23;100.00
70815;BME280;58428;49.478;10.986;2022-12-05T00:56:07;98151.19;;;7.19;100.00
70815;BME280;58428;49.478;10.986;2022-12-05T00:58:35;98141.00;;;7.07;100.00
70815;BME280;58428;49.478;10.986;2022-12-05T01:01:09;98150.31;;;7.01;100.00
70815;BME280;58428;49.478;10.986;2022-12-05T01:03:35;98154.16;;;7.09;100.00
70815;BME280;58428;49.478;10.986;2022-12-05T01:06:10;98160.31;;;7.09;100.00
70815;BME280;58428;49.478;10.986;2022-12-05T01:08:37;98163.50;;;7.11;100.00
70815;BME280;58428;49.478;10.986;2022-12-05T01:11:04;98170.16;;;7.14;100.00
70815;BME280;58428;49.478;10.986;2022-12-05T01:13:30;98176.75;;;6.99;100.00
70815;BME280;58428;49.478;10.986;2022-12-05T01:15:56;98181.94;;;6.96;100.00
70815;BME280;58428;49.478;10.986;2022-12-05T01:18:22;98181.97;;;7.04;100.00
70815;BME280;58428;49.478;10.986;2022-12-05T01:20:48;98173.47;;;7.11;100.00
70815;BME280;58428;49.478;10.986;2022-12-05T01:23:15;98170.63;;;7.16;100.00
70815;BME280;58428;49.478;10.986;2022-12-05T01:25:42;98173.03;;;7.17;100.00
70815;BME280;58428;49.478;10.986;2022-12-05T01:28:10;98180.78;;;7.19;100.00
70815;BME280;58428;49.478;10.986;2022-12-05T01:30:38;98183.97;;;7.21;100.00
70815;BME280;58428;49.478;10.986;2022-12-05T01:33:04;98193.75;;;7.17;100.00
70815;BME280;58428;49.478;10.986;2022-12-05T01:35:32;98189.13;;;7.09;100.00
70815;BME280;58428;49.478;10.986;2022-12-05T01:37:57;98188.16;;;7.05;100.00
70815;BME280;58428;49.478;10.986;2022-12-05T01:40:23;98193.16;;;6.98;100.00
70815;BME280;58428;49.478;10.986;2022-12-05T01:42:48;98190.66;;;7.01;100.00
70815;BME280;58428;49.478;10.986;2022-12-05T01:45:17;98203.25;;;6.93;100.00
70815;BME280;58428;49.478;10.986;2022-12-05T01:47:46;98209.06;;;6.86;100.00
70815;BME280;58428;49.478;10.986;2022-12-05T01:50:11;98208.63;;;6.93;100.00
70815;BME280;58428;49.478;10.986;2022-12-05T01:52:38;98220.69;;;6.95;100.00
70815;BME280;58428;49.478;10.986;2022-12-05T01:55:12;98235.13;;;6.99;100.00
70815;BME280;58428;49.478;10.986;2022-12-05T01:57:39;98228.31;;;7.01;100.00
70815;BME280;58428;49.478;10.986;2022-12-05T02:00:12;98229.09;;;7.02;100.00
70815;BME280;58428;49.478;10.986;2022-12-05T02:02:40;98229.28;;;7.05;100.00
70815;BME280;58428;49.478;10.986;2022-12-05T02:05:12;98224.50;;;7.02;100.00
70815;BME280;58428;49.478;10.986;2022-12-05T02:07:42;98233.88;;;7.05;100.00
70815;BME280;58428;49.478;10.986;2022-12-05T02:10:10;98231.78;;;7.02;100.00
70815;BME280;58428;49.478;10.986;2022-12-05T02:12:36;98235.91;;;6.99;100.00
70815;BME280;58428;49.478;10.986;2022-12-05T02:23:57;98247.75;;;6.77;100.00
70815;BME280;58428;49.478;10.986;2022-12-05T02:26:47;98249.91;;;6.66;100.00
70815;BME280;58428;49.478;10.986;2022-12-05T02:36:02;98269.84;;;6.52;100.00
70815;BME280;58428;49.478;10.986;2022-12-05T02:43:59;98268.75;;;6.53;100.00
70815;BME280;58428;49.478;10.986;2022-12-05T02:46:28;98273.50;;;6.56;100.00
70815;BME280;58428;49.478;10.986;2022-12-05T02:48:59;98278.72;;;6.53;100.00
70815;BME280;58428;49.478;10.986;2022-12-05T02:51:29;98283.78;;;6.54;100.00
70815;BME280;58428;49.478;10.986;2022-12-05T02:53:58;98292.53;;;6.59;100.00
70815;BME280;58428;49.478;10.986;2022-12-05T02:56:28;98289.84;;;6.59;100.00
70815;BME280;58428;49.478;10.986;2022-12-05T02:58:54;98298.63;;;6.52;100.00
70815;BME280;58428;49.478;10.986;2022-12-05T03:01:20;98299.25;;;6.35;100.00
70815;BME280;58428;49.478;10.986;2022-12-05T03:03:53;98301.34;;;6.25;100.00
70815;BME280;58428;49.478;10.986;2022-12-05T03:08:54;98316.19;;;6.22;100.00
70815;BME280;58428;49.478;10.986;2022-12-05T03:11:22;98311.22;;;6.16;100.00
70815;BME280;58428;49.478;10.986;2022-12-05T03:13:55;98314.13;;;6.06;100.00
70815;BME280;58428;49.478;10.986;2022-12-05T03:16:28;98320.06;;;6.03;100.00
70815;BME280;58428;49.478;10.986;2022-12-05T03:19:03;98320.47;;;6.10;100.00
70815;BME280;58428;49.478;10.986;2022-12-05T03:21:36;98313.81;;;6.08;100.00
70815;BME280;58428;49.478;10.986;2022-12-05T03:24:09;98312.50;;;6.05;100.00
70815;BME280;58428;49.478;10.986;2022-12-05T03:37:46;98272.66;;;5.86;100.00
70815;BME280;58428;49.478;10.986;2022-12-05T03:43:47;98290.53;;;5.90;100.00
70815;BME280;58428;49.478;10.986;2022-12-05T03:46:29;98310.03;;;5.95;100.00
70815;BME280;58428;49.478;10.986;2022-12-05T03:49:23;98310.81;;;5.96;100.00
70815;BME280;58428;49.478;10.986;2022-12-05T03:54:39;98316.41;;;5.99;100.00
70815;BME280;58428;49.478;10.986;2022-12-05T03:57:34;98318.59;;;5.97;100.00
70815;BME280;58428;49.478;10.986;2022-12-05T04:00:13;98323.88;;;5.89;100.00
70815;BME280;58428;49.478;10.986;2022-12-05T04:02:54;98340.47;;;5.91;100.00
70815;BME280;58428;49.478;10.986;2022-12-05T04:08:19;98348.22;;;5.92;100.00
70815;BME280;58428;49.478;10.986;2022-12-05T04:10:49;98348.53;;;5.91;100.00
70815;BME280;58428;49.478;10.986;2022-12-05T04:13:29;98356.56;;;5.91;100.00
70815;BME280;58428;49.478;10.986;2022-12-05T04:16:04;98364.91;;;5.89;100.00
70815;BME280;58428;49.478;10.986;2022-12-05T04:18:59;98369.00;;;5.87;100.00
70815;BME280;58428;49.478;10.986;2022-12-05T04:21:30;98370.78;;;5.78;100.00
70815;BME280;58428;49.478;10.986;2022-12-05T04:24:02;98373.56;;;5.73;100.00
70815;BME280;58428;49.478;10.986;2022-12-05T04:27:03;98379.94;;;5.77;100.00
70815;BME280;58428;49.478;10.986;2022-12-05T04:29:36;98375.84;;;5.80;100.00
70815;BME280;58428;49.478;10.986;2022-12-05T04:32:07;98379.94;;;5.77;100.00
70815;BME280;58428;49.478;10.986;2022-12-05T04:34:36;98388.41;;;5.66;100.00
70815;BME280;58428;49.478;10.986;2022-12-05T04:37:08;98378.53;;;5.48;100.00
70815;BME280;58428;49.478;10.986;2022-12-05T04:39:43;98392.06;;;5.25;100.00
70815;BME280;58428;49.478;10.986;2022-12-05T04:42:15;98388.72;;;5.33;100.00
70815;BME280;58428;49.478;10.986;2022-12-05T04:45:03;98394.94;;;5.28;100.00
70815;BME280;58428;49.478;10.986;2022-12-05T04:47:36;98390.69;;;5.27;100.00
70815;BME280;58428;49.478;10.986;2022-12-05T04:50:05;98392.84;;;5.25;100.00
70815;BME280;58428;49.478;10.986;2022-12-05T04:52:34;98383.41;;;5.28;100.00
70815;BME280;58428;49.478;10.986;2022-12-05T04:55:20;98390.25;;;5.20;100.00
70815;BME280;58428;49.478;10.986;2022-12-05T04:58:06;98397.59;;;5.15;100.00
70815;BME280;58428;49.478;10.986;2022-12-05T05:00:37;98403.97;;;5.19;100.00
70815;BME280;58428;49.478;10.986;2022-12-05T05:03:15;98402.28;;;5.23;100.00
70815;BME280;58428;49.478;10.986;2022-12-05T05:05:44;98399.63;;;5.23;100.00
70815;BME280;58428;49.478;10.986;2022-12-05T05:08:23;98403.97;;;5.19;100.00
70815;BME280;58428;49.478;10.986;2022-12-05T05:13:33;98410.84;;;5.25;100.00
70815;BME280;58428;49.478;10.986;2022-12-05T05:16:01;98406.72;;;5.14;100.00
70815;BME280;58428;49.478;10.986;2022-12-05T05:18:30;98414.09;;;5.22;100.00
70815;BME280;58428;49.478;10.986;2022-12-05T05:20:56;98413.59;;;5.20;100.00
70815;BME280;58428;49.478;10.986;2022-12-05T05:23:24;98420.41;;;5.31;100.00
70815;BME280;58428;49.478;10.986;2022-12-05T05:25:53;98423.59;;;5.33;100.00
70815;BME280;58428;49.478;10.986;2022-12-05T05:28:20;98420.91;;;5.33;100.00
70815;BME280;58428;49.478;10.986;2022-12-05T05:30:47;98418.88;;;5.25;100.00
70815;BME280;58428;49.478;10.986;2022-12-05T05:33:14;98416.22;;;5.25;100.00
70815;BME280;58428;49.478;10.986;2022-12-05T05:35:42;98427.72;;;5.25;100.00
70815;BME280;58428;49.478;10.986;2022-12-05T05:38:10;98430.28;;;5.17;100.00
70815;BME280;58428;49.478;10.986;2022-12-05T05:40:36;98435.56;;;5.22;100.00
70815;BME280;58428;49.478;10.986;2022-12-05T05:43:01;98428.59;;;5.21;100.00
70815;BME280;58428;49.478;10.986;2022-12-05T05:45:27;98440.03;;;5.26;100.00
70815;BME280;58428;49.478;10.986;2022-12-05T05:47:52;98435.19;;;5.10;100.00
70815;BME280;58428;49.478;10.986;2022-12-05T05:50:19;98434.63;;;5.13;100.00
70815;BME280;58428;49.478;10.986;2022-12-05T05:52:45;98434.41;;;5.10;100.00
70815;BME280;58428;49.478;10.986;2022-12-05T05:55:11;98428.03;;;5.06;100.00
70815;BME280;58428;49.478;10.986;2022-12-05T05:57:37;98437.31;;;5.13;100.00
70815;BME280;58428;49.478;10.986;2022-12-05T06:00:05;98435.78;;;5.07;100.00
70815;BME280;58428;49.478;10.986;2022-12-05T06:02:32;98440.41;;;5.02;100.00
70815;BME280;58428;49.478;10.986;2022-12-05T06:04:59;98438.81;;;5.01;100.00
70815;BME280;58428;49.478;10.986;2022-12-05T06:07:25;98447.06;;;5.04;100.00
70815;BME280;58428;49.478;10.986;2022-12-05T06:09:52;98445.84;;;4.97;100.00
70815;BME280;58428;49.478;10.986;2022-12-05T06:12:17;98449.41;;;4.92;100.00
70815;BME280;58428;49.478;10.986;2022-12-05T06:14:46;98439.22;;;4.89;100.00
70815;BME280;58428;49.478;10.986;2022-12-05T06:17:13;98457.28;;;4.84;100.00
70815;BME280;58428;49.478;10.986;2022-12-05T06:19:38;98447.59;;;4.88;100.00
70815;BME280;58428;49.478;10.986;2022-12-05T06:22:04;98459.16;;;4.83;100.00
70815;BME280;58428;49.478;10.986;2022-12-05T06:24:30;98458.88;;;4.85;100.00
70815;BME280;58428;49.478;10.986;2022-12-05T06:26:55;98469.31;;;4.86;100.00
70815;BME280;58428;49.478;10.986;2022-12-05T06:29:21;98468.44;;;4.91;100.00
70815;BME280;58428;49.478;10.986;2022-12-05T06:31:46;98475.81;;;4.80;100.00
70815;BME280;58428;49.478;10.986;2022-12-05T06:34:11;98479.00;;;4.82;100.00
70815;BME280;58428;49.478;10.986;2022-12-05T06:36:37;98478.31;;;4.72;100.00
70815;BME280;58428;49.478;10.986;2022-12-05T06:39:03;98481.31;;;4.71;100.00
70815;BME280;58428;49.478;10.986;2022-12-05T06:41:29;98484.38;;;4.82;100.00
70815;BME280;58428;49.478;10.986;2022-12-05T06:43:56;98491.41;;;4.78;100.00
70815;BME280;58428;49.478;10.986;2022-12-05T06:46:23;98476.38;;;4.77;100.00
70815;BME280;58428;49.478;10.986;2022-12-05T06:48:55;98493.88;;;4.70;100.00
70815;BME280;58428;49.478;10.986;2022-12-05T06:51:22;98493.63;;;4.72;100.00
70815;BME280;58428;49.478;10.986;2022-12-05T06:53:51;98497.25;;;4.80;100.00
70815;BME280;58428;49.478;10.986;2022-12-05T06:56:19;98499.66;;;4.82;100.00
70815;BME280;58428;49.478;10.986;2022-12-05T06:58:48;98502.53;;;4.85;100.00
70815;BME280;58428;49.478;10.986;2022-12-05T07:01:17;98505.19;;;4.90;100.00
70815;BME280;58428;49.478;10.986;2022-12-05T07:04:02;98506.75;;;4.91;100.00
70815;BME280;58428;49.478;10.986;2022-12-05T07:06:27;98507.13;;;4.85;100.00
70815;BME280;58428;49.478;10.986;2022-12-05T07:08:53;98504.28;;;4.76;100.00
70815;BME280;58428;49.478;10.986;2022-12-05T07:11:19;98498.94;;;4.76;100.00
70815;BME280;58428;49.478;10.986;2022-12-05T07:13:45;98510.78;;;4.71;100.00
70815;BME280;58428;49.478;10.986;2022-12-05T07:16:10;98509.31;;;4.60;100.00
70815;BME280;58428;49.478;10.986;2022-12-05T07:18:37;98510.91;;;4.61;100.00
70815;BME280;58428;49.478;10.986;2022-12-05T07:21:05;98517.09;;;4.56;100.00
70815;BME280;58428;49.478;10.986;2022-12-05T07:23:33;98519.22;;;4.59;100.00
70815;BME280;58428;49.478;10.986;2022-12-05T07:26:02;98515.13;;;4.67;100.00
70815;BME280;58428;49.478;10.986;2022-12-05T07:28:28;98519.84;;;4.75;100.00
70815;BME280;58428;49.478;10.986;2022-12-05T07:31:05;98526.13;;;4.88;100.00
70815;BME280;58428;49.478;10.986;2022-12-05T07:33:34;98530.84;;;4.96;100.00
70815;BME280;58428;49.478;10.986;2022-12-05T07:36:14;98527.38;;;4.96;100.00
70815;BME280;58428;49.478;10.986;2022-12-05T07:38:41;98539.94;;;4.95;100.00
70815;BME280;58428;49.478;10.986;2022-12-05T07:41:16;98540.41;;;5.02;100.00
70815;BME280;58428;49.478;10.986;2022-12-05T07:43:43;98547.34;;;5.03;100.00
70815;BME280;58428;49.478;10.986;2022-12-05T07:46:10;98552.69;;;4.85;100.00
70815;BME280;58428;49.478;10.986;2022-12-05T07:48:35;98551.78;;;4.94;100.00
70815;BME280;58428;49.478;10.986;2022-12-05T07:51:05;98552.03;;;4.93;100.00
70815;BME280;58428;49.478;10.986;2022-12-05T07:53:32;98554.81;;;4.88;100.00
70815;BME280;58428;49.478;10.986;2022-12-05T07:56:01;98560.38;;;4.91;100.00
70815;BME280;58428;49.478;10.986;2022-12-05T07:58:29;98567.00;;;4.99;100.00
70815;BME280;58428;49.478;10.986;2022-12-05T08:00:55;98572.22;;;5.09;100.00
70815;BME280;58428;49.478;10.986;2022-12-05T08:03:20;98569.78;;;5.12;100.00
70815;BME280;58428;49.478;10.986;2022-12-05T08:05:50;98559.84;;;5.12;100.00
70815;BME280;58428;49.478;10.986;2022-12-05T08:08:16;98553.19;;;5.10;100.00
70815;BME280;58428;49.478;10.986;2022-12-05T08:10:42;98552.25;;;5.19;100.00
70815;BME280;58428;49.478;10.986;2022-12-05T08:13:10;98555.44;;;5.21;100.00
70815;BME280;58428;49.478;10.986;2022-12-05T08:15:36;98552.13;;;5.29;100.00
70815;BME280;58428;49.478;10.986;2022-12-05T08:18:02;98555.88;;;5.28;100.00
70815;BME280;58428;49.478;10.986;2022-12-05T08:20:28;98567.28;;;5.39;100.00
70815;BME280;58428;49.478;10.986;2022-12-05T08:22:56;98572.50;;;5.48;100.00
70815;BME280;58428;49.478;10.986;2022-12-05T08:25:21;98574.41;;;5.48;100.00
70815;BME280;58428;49.478;10.986;2022-12-05T08:27:49;98571.41;;;5.49;100.00
70815;BME280;58428;49.478;10.986;2022-12-05T08:30:14;98564.03;;;5.60;100.00
70815;BME280;58428;49.478;10.986;2022-12-05T08:32:40;98573.66;;;5.61;100.00
70815;BME280;58428;49.478;10.986;2022-12-05T08:35:05;98577.50;;;5.55;100.00
70815;BME280;58428;49.478;10.986;2022-12-05T08:37:31;98580.91;;;5.60;100.00
70815;BME280;58428;49.478;10.986;2022-12-05T08:39:56;98580.25;;;5.68;100.00
70815;BME280;58428;49.478;10.986;2022-12-05T08:42:22;98586.44;;;5.50;100.00
70815;BME280;58428;49.478;10.986;2022-12-05T08:44:47;98593.00;;;5.40;100.00
70815;BME280;58428;49.478;10.986;2022-12-05T08:47:15;98591.88;;;5.22;100.00
70815;BME280;58428;49.478;10.986;2022-12-05T08:49:43;98604.13;;;5.10;100.00
70815;BME280;58428;49.478;10.986;2022-12-05T08:52:10;98600.88;;;5.13;100.00
70815;BME280;58428;49.478;10.986;2022-12-05T08:54:37;98599.53;;;5.34;100.00
70815;BME280;58428;49.478;10.986;2022-12-05T08:57:03;98607.03;;;5.55;100.00
70815;BME280;58428;49.478;10.986;2022-12-05T08:59:28;98608.41;;;5.71;100.00
70815;BME280;58428;49.478;10.986;2022-12-05T09:01:54;98613.78;;;5.71;100.00
70815;BME280;58428;49.478;10.986;2022-12-05T09:04:19;98615.56;;;5.80;100.00
70815;BME280;58428;49.478;10.986;2022-12-05T09:06:45;98617.44;;;5.80;100.00
70815;BME280;58428;49.478;10.986;2022-12-05T09:09:10;98627.63;;;5.83;100.00
70815;BME280;58428;49.478;10.986;2022-12-05T09:11:39;98633.13;;;5.91;100.00
70815;BME280;58428;49.478;10.986;2022-12-05T09:14:05;98637.97;;;5.89;100.00
70815;BME280;58428;49.478;10.986;2022-12-05T09:16:33;98643.50;;;5.79;100.00
70815;BME280;58428;49.478;10.986;2022-12-05T09:18:59;98654.25;;;5.79;100.00
70815;BME280;58428;49.478;10.986;2022-12-05T09:21:29;98644.84;;;5.77;100.00
70815;BME280;58428;49.478;10.986;2022-12-05T09:23:57;98646.91;;;5.85;100.00
70815;BME280;58428;49.478;10.986;2022-12-05T09:26:24;98638.78;;;5.89;100.00
70815;BME280;58428;49.478;10.986;2022-12-05T09:28:51;98638.13;;;5.97;100.00
70815;BME280;58428;49.478;10.986;2022-12-05T09:31:19;98639.41;;;6.00;100.00
70815;BME280;58428;49.478;10.986;2022-12-05T09:33:45;98641.09;;;5.96;100.00
70815;BME280;58428;49.478;10.986;2022-12-05T09:36:14;98640.94;;;6.06;100.00
70815;BME280;58428;49.478;10.986;2022-12-05T09:38:41;98646.53;;;5.91;100.00
70815;BME280;58428;49.478;10.986;2022-12-05T09:46:22;98647.34;;;5.91;100.00
70815;BME280;58428;49.478;10.986;2022-12-05T09:48:51;98656.13;;;5.97;100.00
70815;BME280;58428;49.478;10.986;2022-12-05T09:51:17;98657.34;;;5.86;100.00
70815;BME280;58428;49.478;10.986;2022-12-05T09:53:45;98657.84;;;5.88;100.00
70815;BME280;58428;49.478;10.986;2022-12-05T09:58:52;98646.25;;;5.92;100.00
70815;BME280;58428;49.478;10.986;2022-12-05T10:01:42;98645.38;;;5.97;100.00
70815;BME280;58428;49.478;10.986;2022-12-05T10:13:05;98640.88;;;6.11;100.00
70815;BME280;58428;49.478;10.986;2022-12-05T10:15:52;98645.75;;;6.09;100.00
70815;BME280;58428;49.478;10.986;2022-12-05T10:23:54;98637.13;;;6.25;100.00
70815;BME280;58428;49.478;10.986;2022-12-05T10:26:31;98639.25;;;6.28;100.00
70815;BME280;58428;49.478;10.986;2022-12-05T10:31:43;98630.47;;;6.22;100.00
70815;BME280;58428;49.478;10.986;2022-12-05T10:34:41;98635.91;;;6.36;100.00
70815;BME280;58428;49.478;10.986;2022-12-05T10:37:16;98644.63;;;6.28;100.00
70815;BME280;58428;49.478;10.986;2022-12-05T10:39:44;98643.97;;;6.36;100.00
70815;BME280;58428;49.478;10.986;2022-12-05T10:42:14;98649.06;;;6.37;100.00
70815;BME280;58428;49.478;10.986;2022-12-05T10:44:41;98646.66;;;6.36;100.00
70815;BME280;58428;49.478;10.986;2022-12-05T10:47:07;98640.34;;;6.27;100.00
70815;BME280;58428;49.478;10.986;2022-12-05T10:49:33;98653.69;;;6.32;100.00
70815;BME280;58428;49.478;10.986;2022-12-05T10:51:58;98646.59;;;6.41;100.00
70815;BME280;58428;49.478;10.986;2022-12-05T10:54:30;98645.41;;;6.28;100.00
70815;BME280;58428;49.478;10.986;2022-12-05T10:56:58;98639.41;;;6.18;100.00
70815;BME280;58428;49.478;10.986;2022-12-05T10:59:25;98649.72;;;6.29;100.00
70815;BME280;58428;49.478;10.986;2022-12-05T11:02:37;98638.94;;;6.48;100.00
70815;BME280;58428;49.478;10.986;2022-12-05T11:05:02;98646.59;;;6.54;100.00
70815;BME280;58428;49.478;10.986;2022-12-05T11:09:57;98643.22;;;6.49;100.00
70815;BME280;58428;49.478;10.986;2022-12-05T11:12:28;98646.59;;;6.41;100.00
70815;BME280;58428;49.478;10.986;2022-12-05T11:15:21;98639.44;;;6.50;100.00
70815;BME280;58428;49.478;10.986;2022-12-05T11:17:51;98625.31;;;6.58;100.00
70815;BME280;58428;49.478;10.986;2022-12-05T11:23:16;98633.38;;;6.26;100.00
70815;BME280;58428;49.478;10.986;2022-12-05T11:25:47;98635.06;;;6.22;100.00
70815;BME280;58428;49.478;10.986;2022-12-05T11:33:37;98627.59;;;6.51;100.00
70815;BME280;58428;49.478;10.986;2022-12-05T11:38:31;98621.25;;;6.60;100.00
70815;BME280;58428;49.478;10.986;2022-12-05T11:51:43;98610.00;;;6.71;100.00
70815;BME280;58428;49.478;10.986;2022-12-05T11:54:32;98612.47;;;6.55;100.00
70815;BME280;58428;49.478;10.986;2022-12-05T12:18:17;98589.00;;;7.53;100.00
70815;BME280;58428;49.478;10.986;2022-12-05T12:40:55;98606.03;;;7.62;100.00
70815;BME280;58428;49.478;10.986;2022-12-05T12:44:22;98617.91;;;7.48;100.00
70815;BME280;58428;49.478;10.986;2022-12-05T13:12:40;98600.47;;;6.79;100.00
70815;BME280;58428;49.478;10.986;2022-12-05T13:15:39;98601.25;;;6.79;100.00
70815;BME280;58428;49.478;10.986;2022-12-05T13:18:39;98592.53;;;6.87;100.00
70815;BME280;58428;49.478;10.986;2022-12-05T13:24:41;98601.75;;;6.81;100.00
70815;BME280;58428;49.478;10.986;2022-12-05T13:27:17;98602.28;;;6.83;100.00
70815;BME280;58428;49.478;10.986;2022-12-05T13:30:21;98600.91;;;6.99;100.00
70815;BME280;58428;49.478;10.986;2022-12-05T13:36:55;98603.47;;;7.04;100.00
70815;BME280;58428;49.478;10.986;2022-12-05T13:39:41;98600.09;;;6.85;100.00
70815;BME280;58428;49.478;10.986;2022-12-05T13:42:36;98609.13;;;6.76;100.00
70815;BME280;58428;49.478;10.986;2022-12-05T13:45:17;98602.56;;;6.68;100.00
70815;BME280;58428;49.478;10.986;2022-12-05T13:53:26;98604.31;;;6.59;100.00
70815;BME280;58428;49.478;10.986;2022-12-05T13:56:13;98604.28;;;6.46;100.00
70815;BME280;58428;49.478;10.986;2022-12-05T14:01:50;98608.28;;;6.49;100.00
70815;BME280;58428;49.478;10.986;2022-12-05T14:07:58;98615.28;;;6.31;100.00
70815;BME280;58428;49.478;10.986;2022-12-05T14:13:42;98605.47;;;6.40;100.00
70815;BME280;58428;49.478;10.986;2022-12-05T14:16:43;98616.13;;;6.45;100.00
70815;BME280;58428;49.478;10.986;2022-12-05T14:19:20;98611.97;;;6.53;100.00
70815;BME280;58428;49.478;10.986;2022-12-05T14:25:21;98611.00;;;6.62;100.00
70815;BME280;58428;49.478;10.986;2022-12-05T14:28:18;98607.44;;;6.66;100.00
70815;BME280;58428;49.478;10.986;2022-12-05T14:33:26;98605.75;;;6.70;100.00
70815;BME280;58428;49.478;10.986;2022-12-05T14:35:52;98612.59;;;6.63;100.00
70815;BME280;58428;49.478;10.986;2022-12-05T14:38:25;98607.31;;;6.58;100.00
70815;BME280;58428;49.478;10.986;2022-12-05T14:40:54;98597.25;;;6.63;100.00
70815;BME280;58428;49.478;10.986;2022-12-05T14:43:28;98603.94;;;6.66;100.00
70815;BME280;58428;49.478;10.986;2022-12-05T14:45:58;98598.53;;;6.53;100.00
70815;BME280;58428;49.478;10.986;2022-12-05T14:48:44;98607.97;;;6.37;100.00
70815;BME280;58428;49.478;10.986;2022-12-05T14:54:18;98600.19;;;6.17;100.00
70815;BME280;58428;49.478;10.986;2022-12-05T14:56:50;98607.84;;;6.10;100.00
70815;BME280;58428;49.478;10.986;2022-12-05T14:59:30;98607.25;;;6.13;100.00
70815;BME280;58428;49.478;10.986;2022-12-05T15:02:01;98604.06;;;6.11;100.00
70815;BME280;58428;49.478;10.986;2022-12-05T15:07:10;98609.94;;;6.13;100.00
70815;BME280;58428;49.478;10.986;2022-12-05T15:12:46;98605.72;;;6.25;100.00
70815;BME280;58428;49.478;10.986;2022-12-05T15:16:05;98604.84;;;6.30;100.00
70815;BME280;58428;49.478;10.986;2022-12-05T15:18:33;98609.72;;;6.28;100.00
70815;BME280;58428;49.478;10.986;2022-12-05T15:21:13;98613.28;;;6.23;100.00
70815;BME280;58428;49.478;10.986;2022-12-05T15:23:57;98618.31;;;6.12;100.00
70815;BME280;58428;49.478;10.986;2022-12-05T15:31:30;98622.34;;;6.27;100.00
70815;BME280;58428;49.478;10.986;2022-12-05T15:34:13;98623.09;;;6.15;100.00
70815;BME280;58428;49.478;10.986;2022-12-05T15:36:45;98617.72;;;6.15;100.00
70815;BME280;58428;49.478;10.986;2022-12-05T15:39:20;98617.72;;;6.15;100.00
70815;BME280;58428;49.478;10.986;2022-12-05T15:41:49;98619.94;;;6.26;100.00
70815;BME280;58428;49.478;10.986;2022-12-05T15:44:16;98625.03;;;6.27;100.00
70815;BME280;58428;49.478;10.986;2022-12-05T15:46:43;98620.88;;;6.35;100.00
70815;BME280;58428;49.478;10.986;2022-12-05T15:49:22;98625.38;;;6.39;100.00
70815;BME280;58428;49.478;10.986;2022-12-05T15:52:27;98625.44;;;6.34;100.00
70815;BME280;58428;49.478;10.986;2022-12-05T15:54:59;98637.97;;;6.25;100.00
70815;BME280;58428;49.478;10.986;2022-12-05T15:57:40;98633.38;;;6.26;100.00
70815;BME280;58428;49.478;10.986;2022-12-05T16:00:16;98634.56;;;6.20;100.00
70815;BME280;58428;49.478;10.986;2022-12-05T16:02:53;98638.19;;;6.11;100.00
70815;BME280;58428;49.478;10.986;2022-12-05T16:05:37;98639.63;;;6.03;100.00
70815;BME280;58428;49.478;10.986;2022-12-05T16:08:06;98640.00;;;5.97;100.00
70815;BME280;58428;49.478;10.986;2022-12-05T16:10:33;98636.59;;;5.91;100.00
70815;BME280;58428;49.478;10.986;2022-12-05T16:13:21;98637.03;;;5.98;100.00
70815;BME280;58428;49.478;10.986;2022-12-05T16:15:49;98646.97;;;5.98;100.00
70815;BME280;58428;49.478;10.986;2022-12-05T16:18:28;98652.94;;;5.95;100.00
70815;BME280;58428;49.478;10.986;2022-12-05T16:20:54;98658.16;;;6.05;100.00
70815;BME280;58428;49.478;10.986;2022-12-05T16:23:31;98657.44;;;5.99;100.00
70815;BME280;58428;49.478;10.986;2022-12-05T16:26:20;98657.50;;;5.94;100.00
70815;BME280;58428;49.478;10.986;2022-12-05T16:28:59;98662.06;;;5.94;100.00
70815;BME280;58428;49.478;10.986;2022-12-05T16:31:31;98664.25;;;5.92;100.00
70815;BME280;58428;49.478;10.986;2022-12-05T16:34:03;98667.25;;;5.90;100.00
70815;BME280;58428;49.478;10.986;2022-12-05T16:36:29;98668.53;;;5.93;100.00
70815;BME280;58428;49.478;10.986;2022-12-05T16:39:03;98667.34;;;5.81;100.00
70815;BME280;58428;49.478;10.986;2022-12-05T16:41:38;98667.44;;;5.76;100.00